Time;durP1;ratioP1;P1;durP2;ratioP2;P2;SDS_P1;SDS_P2;PMS_P1;PMS_P2;Temp;Humidity;BMP_temperature;BMP_pressure;BME280_temperature;BME280_humidity;BME280_pressure;Samples;Min_cycle;Max_cycle;Signal;HPM_P1;HPM_P2
2023/08/22 00:03:29;;;;;;;4.24;2.66;;;;;;;25.13;67.85;99490.00;7316054;39;20251;31
2023/08/22 00:09:04;;;;;;;4.67;2.60;;;;;;;25.02;67.43;99490.09;7272520;40;20260;31
2023/08/22 00:14:25;;;;;;;5.95;3.00;;;;;;;25.05;68.27;99484.09;7269406;40;20242;31
2023/08/22 00:20:00;;;;;;;3.85;2.80;;;;;;;25.02;68.57;99482.66;7255175;40;20255;31
2023/08/22 00:25:21;;;;;;;6.84;2.94;;;;;;;24.95;67.76;99478.41;7297169;39;20260;31
2023/08/22 00:30:41;;;;;;;3.55;2.55;;;;;;;24.88;67.87;99475.81;7319342;39;20314;31
2023/08/22 00:36:17;;;;;;;2.90;2.60;;;;;;;24.89;68.05;99474.72;7290107;39;20260;31
2023/08/22 00:41:37;;;;;;;2.95;2.65;;;;;;;24.67;69.02;99471.03;7315602;39;20418;31
2023/08/22 00:47:12;;;;;;;6.40;3.20;;;;;;;24.38;70.58;99469.44;7300017;39;20352;31
2023/08/22 00:52:45;;;;;;;4.53;3.20;;;;;;;24.32;70.49;99474.03;7325669;39;20499;31
2023/08/22 00:58:17;;;;;;;4.90;3.45;;;;;;;24.36;69.63;99469.69;7263736;40;20273;31
2023/08/22 01:08:54;;;;;;;5.97;3.20;;;;;;;24.56;68.67;99463.69;7255944;40;21224;31
2023/08/22 01:19:30;;;;;;;5.35;3.15;;;;;;;24.65;68.60;99463.03;7306370;39;21144;31
2023/08/22 01:25:06;;;;;;;4.45;2.80;;;;;;;24.72;68.80;99464.78;7333113;39;20244;31
2023/08/22 01:30:41;;;;;;;3.20;2.90;;;;;;;24.75;68.84;99462.34;7296348;39;20248;31
2023/08/22 01:36:16;;;;;;;3.65;2.70;;;;;;;24.48;69.88;99459.44;7281910;39;20242;31
2023/08/22 01:41:52;;;;;;;3.10;2.80;;;;;;;24.48;68.67;99453.09;7238019;40;20299;31
2023/08/22 01:47:09;;;;;;;4.37;3.20;;;;;;;24.54;69.50;99457.59;7255103;40;20371;31
2023/08/22 01:52:27;;;;;;;5.95;3.12;;;;;;;24.46;68.39;99447.81;7306949;39;20275;31
2023/08/22 01:58:04;;;;;;;5.30;3.00;;;;;;;24.08;69.89;99453.19;7348332;39;20289;31
2023/08/22 02:03:39;;;;;;;3.85;3.00;;;;;;;23.83;71.67;99452.72;7309805;39;20270;31
2023/08/22 02:09:14;;;;;;;5.86;3.90;;;;;;;23.92;71.32;99432.78;7233466;40;20241;31
2023/08/22 02:14:51;;;;;;;6.45;3.55;;;;;;;23.83;71.09;99431.50;7225506;40;20315;31
2023/08/22 02:20:11;;;;;;;4.20;3.65;;;;;;;23.93;70.97;99431.72;7244397;40;20257;31
2023/08/22 02:25:46;;;;;;;4.57;3.37;;;;;;;24.08;70.20;99429.25;7296791;39;20449;31
2023/08/22 02:31:21;;;;;;;5.97;3.97;;;;;;;24.13;70.11;99425.75;7251884;40;20399;31
2023/08/22 02:36:40;;;;;;;5.97;4.03;;;;;;;24.15;69.76;99418.91;7258209;40;20241;31
2023/08/22 02:42:00;;;;;;;4.27;3.87;;;;;;;23.96;71.47;99431.22;7236726;40;20246;31
2023/08/22 02:47:34;;;;;;;5.30;3.97;;;;;;;23.85;72.88;99442.28;7255207;40;20241;31
2023/08/22 02:52:54;;;;;;;4.85;3.90;;;;;;;23.86;71.00;99431.03;7285767;39;20292;31
2023/08/22 02:58:14;;;;;;;5.65;3.95;;;;;;;23.83;71.30;99433.47;7299122;39;20240;31
2023/08/22 03:03:50;;;;;;;5.05;3.45;;;;;;;23.34;72.66;99444.81;7274222;39;20465;31
2023/08/22 03:09:09;;;;;;;5.82;4.44;;;;;;;23.26;73.05;99431.44;7254281;39;20300;31
2023/08/22 03:14:29;;;;;;;5.73;4.17;;;;;;;23.16;73.73;99445.00;7333305;39;20248;31
2023/08/22 03:20:04;;;;;;;5.70;4.90;;;;;;;23.23;74.77;99445.69;7342058;39;21188;31
2023/08/22 03:25:24;;;;;;;5.68;4.65;;;;;;;23.28;74.52;99454.06;7306476;39;20230;31
2023/08/22 03:30:44;;;;;;;5.72;4.50;;;;;;;23.21;74.63;99445.09;7322828;39;21499;31
2023/08/22 03:36:18;;;;;;;5.90;5.30;;;;;;;23.06;75.33;99438.44;7295955;40;20259;31
2023/08/22 03:41:38;;;;;;;7.85;5.65;;;;;;;23.09;75.07;99437.94;7258031;40;20446;31
2023/08/22 03:47:13;;;;;;;6.93;5.67;;;;;;;22.96;74.96;99430.78;7289140;40;20259;31
2023/08/22 03:52:49;;;;;;;6.05;5.45;;;;;;;22.91;75.56;99444.41;7296955;39;20308;31
2023/08/22 03:58:24;;;;;;;6.75;5.65;;;;;;;22.85;75.38;99440.75;7338356;39;20444;31
2023/08/22 04:03:59;;;;;;;9.90;5.55;;;;;;;22.84;75.11;99439.06;7302027;40;20447;31
2023/08/22 04:09:35;;;;;;;5.32;4.72;;;;;;;22.94;75.87;99440.38;7329921;39;21559;31
2023/08/22 04:15:10;;;;;;;5.66;5.02;;;;;;;22.76;75.84;99446.84;7294417;39;20241;31
2023/08/22 04:20:30;;;;;;;6.80;5.50;;;;;;;22.75;75.79;99453.41;7303952;39;20267;31
2023/08/22 04:26:06;;;;;;;6.57;4.85;;;;;;;22.71;76.28;99453.06;7275772;40;20260;31
2023/08/22 04:31:41;;;;;;;7.87;5.05;;;;;;;22.64;77.50;99454.22;7269176;40;20343;31
2023/08/22 04:37:16;;;;;;;7.70;4.85;;;;;;;22.57;77.38;99454.31;7234792;40;20286;31
2023/08/22 04:42:52;;;;;;;6.15;4.80;;;;;;;22.57;76.79;99458.97;7274414;40;20340;31
2023/08/22 04:48:13;;;;;;;7.22;5.25;;;;;;;22.73;76.05;99461.06;7266556;40;20244;31
2023/08/22 04:53:32;;;;;;;6.37;4.50;;;;;;;22.82;74.63;99454.09;7273757;40;20259;31
2023/08/22 04:59:06;;;;;;;7.40;4.75;;;;;;;22.71;75.80;99453.06;7302156;39;20455;31
2023/08/22 05:04:27;;;;;;;6.00;4.55;;;;;;;22.74;75.55;99455.31;7304252;39;20248;31
2023/08/22 05:10:02;;;;;;;6.65;5.25;;;;;;;22.63;76.40;99452.53;7350938;39;20321;31
2023/08/22 05:15:35;;;;;;;8.13;4.70;;;;;;;22.71;76.24;99460.47;7370703;39;20488;31
2023/08/22 05:21:10;;;;;;;7.40;4.80;;;;;;;22.73;76.40;99455.56;7295942;39;20245;31
2023/08/22 05:26:45;;;;;;;5.60;4.35;;;;;;;22.91;76.00;99466.41;7251819;40;20261;31
2023/08/22 05:32:20;;;;;;;5.45;4.20;;;;;;;23.09;75.29;99470.94;7278163;39;20264;31
2023/08/22 05:37:41;;;;;;;6.75;4.70;;;;;;;23.06;75.39;99468.69;7273329;40;20255;31
2023/08/22 05:43:01;;;;;;;6.53;4.57;;;;;;;23.01;76.61;99472.16;7297960;39;20251;31
2023/08/22 05:48:36;;;;;;;6.75;4.55;;;;;;;23.00;77.19;99464.12;7326391;39;20262;31
2023/08/22 05:53:57;;;;;;;8.90;4.10;;;;;;;23.23;75.38;99472.38;7308564;39;20404;31
2023/08/22 05:59:17;;;;;;;7.05;3.85;;;;;;;23.49;75.08;99474.63;7337825;39;20243;31
2023/08/22 06:04:52;;;;;;;4.82;3.72;;;;;;;23.70;75.61;99481.38;7365316;39;20456;31
2023/08/22 06:10:29;;;;;;;10.95;4.50;;;;;;;23.83;75.57;99486.59;7279575;39;20319;31
2023/08/22 06:16:04;;;;;;;8.15;5.00;;;;;;;23.99;75.72;99493.22;7261119;39;20254;31
2023/08/22 06:21:41;;;;;;;9.23;4.30;;;;;;;24.07;74.25;99493.69;7195868;40;20324;31
2023/08/22 06:27:01;;;;;;;5.40;4.05;;;;;;;24.24;74.22;99499.25;7220216;40;20249;31
2023/08/22 06:32:22;;;;;;;6.10;4.40;;;;;;;24.42;72.78;99492.66;7069017;39;20232;31
2023/08/22 06:37:56;;;;;;;6.82;3.87;;;;;;;24.62;72.30;99502.12;7259162;40;20450;31
2023/08/22 06:43:31;;;;;;;5.97;3.70;;;;;;;24.89;72.06;99495.94;7254543;40;20245;31
2023/08/22 06:49:05;;;;;;;3.48;3.16;;;;;;;25.09;70.41;99501.78;7177838;40;20254;31
2023/08/22 06:54:37;;;;;;;3.30;3.00;;;;;;;25.28;68.61;99497.63;7227322;40;20281;31
2023/08/22 06:59:58;;;;;;;6.10;2.70;;;;;;;25.44;66.06;99504.22;7271725;40;20363;31
2023/08/22 07:05:18;;;;;;;4.70;2.50;;;;;;;25.54;62.88;99499.69;7303512;39;20426;31
2023/08/22 07:10:56;;;;;;;3.50;2.53;;;;;;;25.66;62.29;99505.09;7294670;39;20499;31
2023/08/22 07:16:16;;;;;;;4.95;2.65;;;;;;;25.90;63.02;99505.63;7303364;39;20228;31
2023/08/22 07:21:36;;;;;;;4.80;2.65;;;;;;;26.09;61.81;99511.66;7324143;39;20252;31
2023/08/22 07:27:12;;;;;;;3.35;2.40;;;;;;;26.27;60.00;99508.56;7314145;39;20244;31
2023/08/22 07:32:44;;;;;;;2.73;2.27;;;;;;;26.44;59.80;99510.12;7330859;39;21153;31
2023/08/22 07:38:01;;;;;;;4.46;2.32;;;;;;;26.62;59.42;99511.66;7276578;39;20354;31
2023/08/22 07:48:37;;;;;;;4.40;2.28;;;;;;;26.89;57.40;99515.25;7315870;39;20252;31
2023/08/22 07:54:09;;;;;;;2.97;2.25;;;;;;;27.08;57.00;99512.03;7308987;39;20394;31
2023/08/22 07:59:41;;;;;;;3.00;2.10;;;;;;;27.26;55.12;99512.44;7318059;39;20338;31
2023/08/22 08:05:15;;;;;;;5.60;2.13;;;;;;;27.42;54.24;99510.63;7252465;40;20250;31
2023/08/22 08:10:51;;;;;;;3.40;2.15;;;;;;;27.54;52.75;99516.78;7225620;40;20268;31
2023/08/22 08:16:11;;;;;;;2.45;2.10;;;;;;;27.72;54.74;99515.50;7214548;40;20514;31
2023/08/22 08:21:47;;;;;;;3.87;2.10;;;;;;;27.92;52.45;99514.72;7291627;40;20264;31
2023/08/22 08:27:20;;;;;;;2.44;1.90;;;;;;;28.03;51.20;99508.13;7228390;40;20296;31
2023/08/22 08:32:36;;;;;;;2.55;1.70;;;;;;;28.27;52.41;99514.84;7239540;40;20241;31
2023/08/22 08:38:12;;;;;;;4.00;1.92;;;;;;;28.46;50.95;99506.84;7219248;40;20285;31
2023/08/22 08:48:48;;;;;;;2.83;1.95;;;;;;;28.97;49.74;99516.03;7347596;39;21118;31
2023/08/22 08:54:35;;;;;;;4.23;2.30;;;;;;;29.07;49.72;99521.59;7325758;39;20257;31
2023/08/22 09:05:11;;;;;;;4.67;2.20;;;;;;;29.39;48.35;99524.91;7376555;39;21160;31
2023/08/22 09:15:51;;;;;;;2.90;1.95;;;;;;;29.66;47.30;99523.72;7244270;40;20286;31
2023/08/22 09:26:28;;;;;;;3.83;2.30;;;;;;;29.93;47.26;99518.59;7314382;39;20277;31
2023/08/22 09:37:04;;;;;;;2.83;2.30;;;;;;;30.41;47.77;99512.19;7379349;39;20262;31
2023/08/22 09:47:40;;;;;;;6.10;2.42;;;;;;;30.81;47.68;99513.03;7375891;39;20344;31
2023/08/22 09:53:13;;;;;;;4.55;2.25;;;;;;;30.51;46.96;99504.94;7359028;39;20263;31
2023/08/22 09:58:45;;;;;;;2.25;1.87;;;;;;;30.70;46.80;99506.75;7318257;39;20263;31
2023/08/22 10:04:16;;;;;;;3.10;1.90;;;;;;;30.95;47.01;99507.63;7337831;39;20248;31
2023/08/22 10:09:53;;;;;;;3.45;2.00;;;;;;;31.18;46.47;99495.75;7323443;39;20260;31
2023/08/22 10:15:26;;;;;;;4.25;2.05;;;;;;;31.16;45.43;99484.88;7284830;39;20241;31
2023/08/22 10:21:01;;;;;;;2.95;1.90;;;;;;;31.39;45.56;99496.34;7303470;39;21280;31
2023/08/22 10:26:34;;;;;;;5.46;2.12;;;;;;;31.55;45.07;99495.91;7275104;40;20241;31
2023/08/22 10:32:37;;;;;;;2.65;1.80;;;;;;;31.40;43.78;99484.06;7251563;40;21764;31
2023/08/22 10:38:09;;;;;;;3.60;1.80;;;;;;;31.60;43.29;99483.84;7247714;40;20261;31
2023/08/22 10:44:09;;;;;;;3.68;1.98;;;;;;;31.75;44.20;99480.88;7282901;39;20261;31
2023/08/22 10:54:48;;;;;;;2.90;1.60;;;;;;;31.67;42.48;99484.34;7302564;39;20932;31
2023/08/22 11:05:29;;;;;;;3.90;2.00;;;;;;;31.90;41.76;99474.28;7344010;39;20281;31
2023/08/22 11:16:02;;;;;;;3.67;2.10;;;;;;;32.24;41.92;99474.09;7341197;39;21112;31
2023/08/22 11:21:35;;;;;;;3.85;1.98;;;;;;;32.25;41.95;99464.59;7361724;39;20263;31
2023/08/22 11:27:04;;;;;;;3.15;1.95;;;;;;;32.50;41.10;99461.41;7322958;39;20240;31
2023/08/22 11:32:33;;;;;;;4.82;1.95;;;;;;;32.51;41.51;99457.50;7328244;39;20667;31
2023/08/22 11:38:06;;;;;;;2.80;2.00;;;;;;;32.57;40.52;99465.47;7323399;39;20249;31
2023/08/22 11:43:27;;;;;;;3.40;2.10;;;;;;;32.64;40.12;99456.75;7263724;40;20261;31
2023/08/22 11:48:57;;;;;;;4.60;2.05;;;;;;;32.76;41.24;99453.47;7314956;39;20256;31
2023/08/22 11:54:54;;;;;;;4.55;2.00;;;;;;;32.89;41.45;99442.31;7268082;39;21799;31
2023/08/22 12:05:44;;;;;;;3.65;2.00;;;;;;;32.99;41.06;99436.56;7291730;39;20301;31
2023/08/22 12:11:15;;;;;;;3.30;2.20;;;;;;;33.12;41.23;99432.13;7244719;40;20352;31
2023/08/22 12:16:50;;;;;;;4.27;2.40;;;;;;;33.10;41.68;99431.59;7212994;40;20273;31
2023/08/22 12:22:08;;;;;;;4.05;2.30;;;;;;;33.00;40.78;99427.00;7276478;39;20272;31
2023/08/22 12:32:45;;;;;;;3.45;2.00;;;;;;;33.29;40.47;99423.97;7267820;40;20288;31
2023/08/22 12:38:17;;;;;;;3.42;2.10;;;;;;;33.45;41.85;99425.31;7286972;39;20271;31
2023/08/22 12:43:35;;;;;;;2.90;2.00;;;;;;;33.71;41.01;99420.03;7313412;39;20279;31
2023/08/22 12:49:08;;;;;;;5.60;2.10;;;;;;;33.86;39.54;99422.50;7293682;40;20354;31
2023/08/22 12:54:26;;;;;;;3.32;2.42;;;;;;;34.02;38.77;99416.53;7244442;39;20246;31
2023/08/22 12:59:42;;;;;;;4.72;2.37;;;;;;;33.89;40.00;99415.44;7263200;40;20255;31
2023/08/22 13:05:15;;;;;;;2.75;2.40;;;;;;;33.96;39.24;99421.44;7311018;39;20248;31
2023/08/22 13:10:47;;;;;;;5.10;2.90;;;;;;;34.00;39.14;99416.88;7308899;39;20394;31
2023/08/22 13:16:19;;;;;;;3.26;2.38;;;;;;;34.02;40.15;99408.13;7283147;40;20322;31
2023/08/22 13:21:54;;;;;;;3.74;2.68;;;;;;;34.18;39.68;99409.50;7316201;39;20352;31
2023/08/22 13:27:12;;;;;;;3.17;2.50;;;;;;;34.09;39.79;99403.78;7265099;40;20260;31
2023/08/22 13:32:32;;;;;;;3.20;2.20;;;;;;;34.24;40.27;99403.44;7118101;39;21403;31
2023/08/22 13:38:05;;;;;;;3.90;2.60;;;;;;;34.26;39.37;99406.75;7360008;39;20262;31
2023/08/22 13:43:38;;;;;;;4.15;2.60;;;;;;;34.26;39.52;99409.56;7372621;39;20266;31
2023/08/22 13:49:12;;;;;;;4.43;2.87;;;;;;;34.22;40.85;99394.53;7311294;39;20244;31
2023/08/22 13:54:48;;;;;;;4.90;2.75;;;;;;;34.37;39.57;99402.53;7315577;39;20399;31
2023/08/22 14:00:25;;;;;;;5.00;2.90;;;;;;;34.35;40.12;99404.03;7263600;40;20284;31
2023/08/22 14:05:57;;;;;;;4.70;2.78;;;;;;;34.12;39.94;99405.09;7277196;39;20264;31
2023/08/22 14:11:33;;;;;;;6.72;2.50;;;;;;;34.05;40.07;99397.16;7284416;39;20714;31
2023/08/22 14:22:12;;;;;;;4.13;2.70;;;;;;;34.11;40.39;99395.06;7329990;39;20588;31
2023/08/22 14:32:52;;;;;;;4.10;2.65;;;;;;;34.03;38.34;99393.84;7288615;40;20377;31
2023/08/22 14:43:13;;;;;;;3.92;2.58;;;;;;;34.06;38.47;99389.56;7288985;39;20263;31
2023/08/22 14:48:44;;;;;;;5.12;2.63;;;;;;;34.01;38.93;99387.72;7334420;39;21944;31
2023/08/22 14:54:01;;;;;;;3.40;2.50;;;;;;;34.09;38.96;99391.75;7286298;39;21986;31
2023/08/22 14:59:21;;;;;;;3.72;2.65;;;;;;;34.07;38.68;99385.63;7296225;40;20257;31
2023/08/22 15:04:52;;;;;;;3.83;2.67;;;;;;;34.08;39.92;99378.91;7302147;39;22199;31
2023/08/22 15:15:16;;;;;;;3.10;2.60;;;;;;;34.00;38.79;99379.66;7379162;39;20438;31
2023/08/22 15:25:54;;;;;;;3.00;2.30;;;;;;;34.00;39.06;99374.06;7362066;39;20342;31
2023/08/22 15:31:11;;;;;;;5.40;2.70;;;;;;;34.00;38.90;99372.09;7332926;39;20256;31
2023/08/22 15:36:43;;;;;;;4.55;2.50;;;;;;;34.01;39.14;99365.34;7327547;39;21465;31
2023/08/22 15:42:17;;;;;;;3.95;2.67;;;;;;;34.05;38.44;99366.38;7337789;39;20275;31
2023/08/22 15:47:34;;;;;;;5.50;2.70;;;;;;;34.12;38.75;99363.97;7315169;39;20252;31
2023/08/22 15:58:15;;;;;;;2.97;2.53;;;;;;;34.03;38.81;99379.03;7313501;39;20290;31
2023/08/22 16:03:50;;;;;;;2.68;2.34;;;;;;;33.99;38.85;99369.59;7286683;39;20262;31
2023/08/22 16:09:25;;;;;;;5.06;2.80;;;;;;;33.57;39.94;99362.47;7301242;39;20252;31
2023/08/22 16:14:59;;;;;;;2.92;2.53;;;;;;;33.50;40.04;99354.47;7274329;39;20430;31
2023/08/22 16:20:31;;;;;;;5.02;2.86;;;;;;;33.40;39.47;99360.28;7254003;40;20265;31
2023/08/22 16:26:06;;;;;;;5.32;2.62;;;;;;;33.20;41.37;99346.75;7269439;40;20287;31
2023/08/22 16:31:40;;;;;;;3.42;2.60;;;;;;;33.07;41.42;99340.84;7233317;39;20373;31
2023/08/22 16:37:12;;;;;;;6.40;2.85;;;;;;;32.93;40.25;99339.16;7212332;40;20261;31
2023/08/22 16:42:32;;;;;;;5.22;2.75;;;;;;;32.78;41.56;99343.09;7215912;40;20253;31
2023/08/22 16:48:05;;;;;;;9.40;3.00;;;;;;;32.55;40.85;99346.88;7246411;40;21293;31
2023/08/22 16:53:37;;;;;;;3.42;2.20;;;;;;;32.41;40.71;99354.38;7220474;40;20266;31
2023/08/22 16:59:06;;;;;;;4.64;2.80;;;;;;;32.33;42.16;99361.50;7195451;40;20357;31
2023/08/22 17:04:39;;;;;;;4.15;2.55;;;;;;;32.13;42.30;99359.03;7210891;40;20266;31
2023/08/22 17:10:11;;;;;;;3.60;2.50;;;;;;;31.99;42.62;99356.16;7199163;40;20335;31
2023/08/22 17:15:44;;;;;;;3.40;2.60;;;;;;;31.84;42.46;99356.41;7211098;40;20427;31
2023/08/22 17:21:16;;;;;;;4.25;2.40;;;;;;;31.66;42.84;99360.84;7285268;39;20342;31
2023/08/22 17:26:33;;;;;;;5.96;2.32;;;;;;;31.51;42.93;99354.59;7223177;40;20431;31
2023/08/22 17:31:50;;;;;;;10.00;4.62;;;;;;;31.51;43.14;99354.59;7285080;39;20260;31
2023/08/22 17:37:22;;;;;;;14.02;4.82;;;;;;;31.43;43.84;99358.06;7315683;39;20646;31
2023/08/22 17:42:38;;;;;;;3.90;2.68;;;;;;;31.27;43.49;99363.84;7275092;40;20325;31
2023/08/22 17:47:55;;;;;;;4.53;2.60;;;;;;;31.14;44.10;99364.59;7282638;39;20369;31
2023/08/22 17:53:28;;;;;;;5.68;2.87;;;;;;;31.04;44.61;99366.66;7340144;39;20275;31
2023/08/22 18:04:07;;;;;;;3.72;2.50;;;;;;;30.77;45.13;99373.59;7312211;39;20272;31
2023/08/22 18:14:44;;;;;;;5.80;3.12;;;;;;;30.39;47.50;99380.91;7305765;39;20268;31
2023/08/22 18:25:21;;;;;;;6.22;2.62;;;;;;;29.84;49.36;99378.53;7334389;39;20296;31
2023/08/22 18:36:10;;;;;;;8.65;3.00;;;;;;;29.62;49.58;99378.13;7300595;39;21118;31
2023/08/22 18:41:29;;;;;;;7.05;3.10;;;;;;;29.51;51.01;99396.78;7296713;39;20279;31
2023/08/22 18:47:03;;;;;;;4.15;2.65;;;;;;;29.26;51.80;99400.47;7260441;40;20269;31
2023/08/22 18:52:44;;;;;;;3.32;2.46;;;;;;;29.15;51.41;99406.31;7172037;40;20246;31
2023/08/22 18:58:12;;;;;;;4.22;3.20;;;;;;;28.94;51.13;99411.94;7130580;40;20255;31
2023/08/22 19:08:50;;;;;;;3.17;2.53;;;;;;;28.63;51.98;99411.12;7212220;40;21205;31
2023/08/22 19:19:25;;;;;;;5.80;2.90;;;;;;;28.33;52.90;99413.94;7294775;39;21207;31
2023/08/22 19:24:58;;;;;;;4.05;2.67;;;;;;;28.12;53.10;99417.81;7355618;39;20283;31
2023/08/22 19:30:33;;;;;;;6.22;2.80;;;;;;;28.04;53.05;99421.09;7297461;39;20249;31
2023/08/22 19:36:05;;;;;;;5.72;2.47;;;;;;;27.94;52.92;99418.28;7298172;39;20341;31
2023/08/22 19:41:38;;;;;;;6.50;2.83;;;;;;;27.88;53.36;99422.16;7275063;40;20512;31
2023/08/22 19:47:12;;;;;;;4.55;2.60;;;;;;;27.62;53.52;99433.19;7265353;40;20237;31
2023/08/22 19:52:29;;;;;;;5.45;2.72;;;;;;;27.32;54.78;99439.41;7235994;40;20260;31
2023/08/22 19:58:05;;;;;;;5.45;2.83;;;;;;;27.24;54.20;99439.09;7273659;40;20245;31
2023/08/22 20:03:37;;;;;;;3.90;2.60;;;;;;;27.17;55.03;99442.06;7236769;40;20268;31
2023/08/22 20:09:09;;;;;;;5.70;2.80;;;;;;;27.07;55.58;99446.75;7280387;40;20343;31
2023/08/22 20:14:46;;;;;;;4.70;2.90;;;;;;;26.87;56.58;99451.03;7272785;39;20971;31
2023/08/22 20:20:19;;;;;;;4.10;2.90;;;;;;;26.80;56.56;99449.56;7245839;40;20249;31
2023/08/22 20:25:39;;;;;;;6.55;2.80;;;;;;;26.81;55.96;99451.25;7309833;39;20424;31
2023/08/22 20:31:15;;;;;;;5.57;3.00;;;;;;;26.69;56.72;99454.19;7324903;39;20244;31
2023/08/22 20:36:35;;;;;;;4.70;2.87;;;;;;;26.63;56.66;99449.75;7082912;40;20232;31
2023/08/22 20:42:10;;;;;;;3.95;2.78;;;;;;;26.53;57.21;99457.94;7297580;39;20315;31
2023/08/22 20:47:44;;;;;;;3.45;2.75;;;;;;;26.53;57.07;99452.41;7299634;39;20265;31
2023/08/22 20:53:19;;;;;;;3.00;2.45;;;;;;;26.62;56.71;99448.06;7326465;39;20435;31
2023/08/22 20:58:39;;;;;;;4.55;2.85;;;;;;;26.65;56.28;99452.22;7305863;39;20418;31
2023/08/22 21:04:15;;;;;;;4.95;2.58;;;;;;;26.45;56.35;99463.97;7255336;40;20237;31
2023/08/22 21:09:36;;;;;;;4.50;2.73;;;;;;;26.43;56.41;99463.38;7276131;39;20271;31
2023/08/22 21:15:10;;;;;;;4.30;2.78;;;;;;;26.38;57.05;99458.63;7326513;39;20259;31
2023/08/22 21:20:44;;;;;;;3.75;3.00;;;;;;;26.28;57.41;99466.87;7284340;39;20279;31
2023/08/22 21:26:04;;;;;;;5.05;2.85;;;;;;;26.27;57.25;99459.66;7293842;40;20253;31
2023/08/22 21:31:24;;;;;;;5.47;2.90;;;;;;;26.23;56.81;99464.03;7292182;39;20271;31
2023/08/22 21:37:12;;;;;;;4.86;2.60;;;;;;;26.16;57.10;99457.84;7297302;39;20276;31
2023/08/22 21:42:44;;;;;;;5.07;2.87;;;;;;;26.12;57.32;99466.91;7226184;40;20245;31
2023/08/22 21:48:20;;;;;;;4.02;3.00;;;;;;;26.06;57.28;99474.34;7296931;40;20245;31
2023/08/22 21:53:56;;;;;;;5.87;3.50;;;;;;;25.93;57.67;99472.81;7288182;40;20245;31
2023/08/22 21:59:18;;;;;;;6.35;3.00;;;;;;;25.95;57.21;99472.56;7275057;40;20339;31
2023/08/22 22:04:52;;;;;;;3.74;3.22;;;;;;;25.86;57.60;99476.88;7278878;39;20548;31
2023/08/22 22:10:29;;;;;;;5.00;3.57;;;;;;;25.72;58.34;99475.59;7262599;40;20244;31
2023/08/22 22:15:49;;;;;;;5.37;3.17;;;;;;;25.72;58.41;99470.06;7251957;39;20253;31
2023/08/22 22:21:24;;;;;;;4.40;3.00;;;;;;;25.67;58.28;99490.16;7283986;39;20264;31
2023/08/22 22:26:57;;;;;;;6.18;3.40;;;;;;;25.55;58.70;99478.44;7319951;39;20436;31
2023/08/22 22:32:17;;;;;;;6.88;3.32;;;;;;;25.43;58.97;99484.06;7328609;39;20255;31
2023/08/22 22:37:37;;;;;;;6.55;3.35;;;;;;;25.37;59.71;99478.72;7263574;40;20259;31
2023/08/22 22:43:13;;;;;;;5.37;3.35;;;;;;;25.37;60.11;99475.94;7283923;39;20512;31
2023/08/22 22:48:48;;;;;;;3.94;3.26;;;;;;;25.34;59.10;99476.47;7318695;39;20252;31
2023/08/22 22:54:08;;;;;;;4.70;3.28;;;;;;;25.29;59.42;99477.25;7275348;40;20267;31
2023/08/22 22:59:45;;;;;;;6.47;3.40;;;;;;;25.23;59.67;99472.72;7281866;39;20256;31
2023/08/22 23:05:21;;;;;;;6.25;3.55;;;;;;;25.22;58.78;99479.34;7301382;39;20263;31
2023/08/22 23:10:56;;;;;;;7.45;3.65;;;;;;;25.13;58.97;99481.72;7284398;40;20252;31
2023/08/22 23:16:29;;;;;;;4.27;3.27;;;;;;;25.11;60.28;99475.59;7304376;40;20280;31
2023/08/22 23:26:53;;;;;;;5.37;3.62;;;;;;;25.02;60.05;99457.81;7209782;40;20438;31
2023/08/22 23:32:29;;;;;;;4.12;3.35;;;;;;;24.91;59.83;99457.94;7257756;40;20287;31
2023/08/22 23:37:46;;;;;;;7.18;4.00;;;;;;;25.01;60.08;99464.41;7323361;39;21164;31
2023/08/22 23:48:22;;;;;;;5.75;3.78;;;;;;;24.81;60.77;99458.59;7337480;39;21152;31
2023/08/22 23:53:57;;;;;;;6.47;3.85;;;;;;;24.75;60.24;99456.81;7338913;39;20269;31
2023/08/22 23:59:32;;;;;;;7.32;3.90;;;;;;;24.64;60.44;99460.53;7370993;39;20277;31
